Terminal Aerodrome Forecast
Issued by NWS

Home | Current Version | Previous Version | Text Only | Print | Product List | Glossary On
Versions: 1 2 3 4 5 6 7 8 9 10 11 12 13 14 15 16 17 18 19 20 21
000
FTUS42 KFFC 201743
TAFRYY
TAF
KRYY 201743Z 2018/2118 12005KT P6SM FEW035 BKN100
      TEMPO 2020/2024 VRB10G20KT 4SM TSRA OVC030CB
     FM210800 14005KT P6SM BKN030
     FM211400 14005KT P6SM OVC015
     FM211700 13005KT P6SM OVC020=

USA.gov is the U.S. government's official web portal to all federal, state and local government web resources and services.